Weather at Calgary International Airport

Public forecast

Using degrees Celsius for public forecast. Weather courtesy of forecast.io.

Current aviation weather report (METAR) for Calgary International Airport

Retrieved 2020/09/23 16:00 UTC (30 minutes ago):

CYYC 231600Z 19008KT 25SM FEW035 FEW150 FEW230 SCT260 12/04 A2988 RMK CF1AC1CI2CI1 CF TR AC TR SLP134 DENSITY ALT 4200FT

Aviation forecast (TAF) for Calgary International Airport

Retrieved 2020/09/23 15:46 UTC (44 minutes ago):

TAF CYYC 231438Z 2315/2412 22008KT P6SM FEW030 SCT100 BKN220 FM231800 18008KT P6SM FEW100 SCT200 FM240000 20008KT P6SM BKN140 BECMG 2410/2412 23012KT RMK NXT FCST BY 231800Z